createdAt,value
2023-05-22T00:00:58.102Z,100465.59
2023-05-22T00:01:39.266Z,100468.31
2023-05-22T00:02:19.531Z,100464.94
2023-05-22T00:03:00.432Z,100466.63
2023-05-22T00:03:48.279Z,100468.31
2023-05-22T00:04:46.275Z,100461.81
2023-05-22T00:05:45.243Z,100444.09
2023-05-22T00:06:40.226Z,100467.81
2023-05-22T00:07:36.271Z,100443.50
2023-05-22T00:08:30.269Z,100463.63
2023-05-22T00:09:11.292Z,100448.00
2023-05-22T00:09:51.503Z,100442.88
2023-05-22T00:10:31.258Z,100457.78
2023-05-22T00:11:11.316Z,100456.84
2023-05-22T00:11:52.242Z,100462.22
2023-05-22T00:12:32.337Z,100461.19
2023-05-22T00:13:13.231Z,100446.03
2023-05-22T00:13:53.518Z,100453.78
2023-05-22T00:14:33.270Z,100468.94
2023-05-22T00:15:14.352Z,100466.00
2023-05-22T00:15:56.262Z,100431.38
2023-05-22T00:16:36.454Z,100455.41
2023-05-22T00:17:21.277Z,100447.75
2023-05-22T00:18:01.358Z,100459.31
2023-05-22T00:18:41.264Z,100432.91
2023-05-22T00:19:23.080Z,100450.28
2023-05-22T00:20:10.285Z,100436.78
2023-05-22T00:20:50.641Z,100464.53
2023-05-22T00:21:31.247Z,100453.97
2023-05-22T00:22:13.374Z,100463.34
2023-05-22T00:22:55.247Z,100452.25
2023-05-22T00:23:35.339Z,100453.47
2023-05-22T00:24:16.224Z,100456.72
2023-05-22T00:24:56.532Z,100461.63
2023-05-22T00:25:37.257Z,100446.31
2023-05-22T00:26:17.319Z,100460.75
2023-05-22T00:26:57.251Z,100460.75
2023-05-22T00:27:37.352Z,100449.41
2023-05-22T00:28:18.227Z,100461.88
2023-05-22T00:28:58.341Z,100436.34
2023-05-22T00:29:39.233Z,100453.19
2023-05-22T00:30:20.323Z,100454.50
2023-05-22T00:31:00.250Z,100441.25
2023-05-22T00:31:40.331Z,100460.00
2023-05-22T00:32:20.224Z,100449.41
2023-05-22T00:33:00.441Z,100455.22
2023-05-22T00:33:41.240Z,100436.03
2023-05-22T00:34:21.339Z,100455.25
2023-05-22T00:35:02.232Z,100455.25
2023-05-22T00:35:42.317Z,100432.00
2023-05-22T00:36:22.265Z,100448.28
2023-05-22T00:37:02.307Z,100449.13
2023-05-22T00:37:43.223Z,100458.50
2023-05-22T00:38:38.389Z,100453.22
2023-05-22T00:39:18.220Z,100439.91
2023-05-22T00:39:58.321Z,100442.69
2023-05-22T00:40:38.407Z,100449.50
2023-05-22T00:41:18.344Z,100455.63
2023-05-22T00:41:59.263Z,100457.91
2023-05-22T00:42:42.307Z,100442.94
2023-05-22T00:43:24.293Z,100459.09
2023-05-22T00:44:04.306Z,100448.53
2023-05-22T00:44:45.348Z,100436.25
2023-05-22T00:45:25.512Z,100447.53
2023-05-22T00:46:06.208Z,100440.84
2023-05-22T00:46:49.402Z,100430.63
2023-05-22T00:47:30.319Z,100453.28
2023-05-22T00:48:12.306Z,100440.84
2023-05-22T00:48:53.238Z,100434.88
2023-05-22T00:49:33.290Z,100453.69
2023-05-22T00:50:15.223Z,100448.22
2023-05-22T00:51:00.484Z,100438.72
2023-05-22T00:51:40.207Z,100447.53
2023-05-22T00:52:21.291Z,100438.03
2023-05-22T00:53:02.258Z,100430.50
2023-05-22T00:53:43.319Z,100444.78
2023-05-22T00:54:24.219Z,100426.72
2023-05-22T00:55:04.302Z,100453.63
2023-05-22T00:55:44.212Z,100439.63
2023-05-22T00:56:24.296Z,100450.91
2023-05-22T00:57:04.229Z,100449.84
2023-05-22T00:57:45.953Z,100440.47
2023-05-22T00:58:28.231Z,100420.88
2023-05-22T00:59:08.298Z,100434.72
2023-05-22T00:59:49.236Z,100431.50
2023-05-22T01:00:30.287Z,100455.53
2023-05-22T01:01:12.220Z,100445.47
2023-05-22T01:02:33.299Z,100434.88
2023-05-22T01:03:13.361Z,100441.06
2023-05-22T01:03:54.327Z,100447.25
2023-05-22T01:04:35.229Z,100452.19
2023-05-22T01:05:18.358Z,100415.75
2023-05-22T01:05:59.305Z,100436.75
2023-05-22T01:06:40.194Z,100431.44
2023-05-22T01:07:23.849Z,100447.63
2023-05-22T01:08:04.200Z,100431.38
2023-05-22T01:08:44.302Z,100450.31
2023-05-22T01:09:24.210Z,100440.28
2023-05-22T01:10:04.726Z,100448.09
2023-05-22T01:10:47.185Z,100445.56
2023-05-22T01:11:56.335Z,100444.25
2023-05-22T01:13:13.198Z,100438.91
2023-05-22T01:14:44.231Z,100448.97
2023-05-22T01:15:52.232Z,100441.78
2023-05-22T01:16:59.182Z,100451.38
2023-05-22T01:18:26.202Z,100443.88
2023-05-22T01:20:28.214Z,100444.19
2023-05-22T01:21:31.188Z,100416.78
2023-05-22T01:22:29.209Z,100454.47
2023-05-22T01:23:33.294Z,100454.69
2023-05-22T01:24:39.178Z,100424.00
2023-05-22T01:25:54.238Z,100448.72
2023-05-22T01:27:21.198Z,100427.75
2023-05-22T01:28:44.199Z,100436.44
2023-05-22T01:30:41.222Z,100451.81
2023-05-22T01:31:26.186Z,100428.91
2023-05-22T01:32:07.275Z,100457.28
2023-05-22T01:32:49.246Z,100432.19
2023-05-22T01:33:31.287Z,100460.66
2023-05-22T01:34:12.198Z,100432.00
2023-05-22T01:34:54.771Z,100441.56
2023-05-22T01:35:36.176Z,100446.34
2023-05-22T01:36:16.539Z,100426.22
2023-05-22T01:36:58.202Z,100441.56
2023-05-22T01:37:40.583Z,100456.28
2023-05-22T01:38:21.186Z,100438.16
2023-05-22T01:39:01.700Z,100439.19
2023-05-22T01:39:43.181Z,100439.19
2023-05-22T01:40:25.621Z,100435.09
2023-05-22T01:41:07.167Z,100450.13
2023-05-22T01:41:48.302Z,100451.63
2023-05-22T01:42:29.196Z,100435.66
2023-05-22T01:43:09.291Z,100431.38
2023-05-22T01:43:50.154Z,100443.13
2023-05-22T01:44:30.520Z,100439.56
2023-05-22T01:45:11.180Z,100439.84
2023-05-22T01:45:51.536Z,100441.59
2023-05-22T01:46:36.169Z,100422.84
2023-05-22T01:47:16.869Z,100421.13
2023-05-22T01:47:57.278Z,100449.13
2023-05-22T01:48:37.265Z,100436.16
2023-05-22T01:49:18.165Z,100451.66
2023-05-22T01:49:58.315Z,100428.66
2023-05-22T01:50:39.467Z,100423.56
2023-05-22T01:52:01.271Z,100448.13
2023-05-22T01:52:53.167Z,100437.38
2023-05-22T01:53:49.204Z,100452.75
2023-05-22T01:54:42.490Z,100448.78
2023-05-22T01:55:49.148Z,100436.00
2023-05-22T01:56:31.285Z,100443.50
2023-05-22T01:57:48.181Z,100452.91
2023-05-22T01:58:34.252Z,100449.50
2023-05-22T01:59:25.185Z,100432.78
2023-05-22T02:00:17.381Z,100444.06
2023-05-22T02:01:01.339Z,100431.75
2023-05-22T02:01:44.372Z,100418.78
2023-05-22T02:02:27.309Z,100435.84
2023-05-22T02:03:26.519Z,100446.09
2023-05-22T02:04:08.150Z,100444.72
2023-05-22T02:04:53.192Z,100436.19
2023-05-22T02:05:28.311Z,100417.09
2023-05-22T02:06:17.186Z,100426.31
2023-05-22T02:06:51.233Z,100416.56
2023-05-22T02:07:42.160Z,100439.25
2023-05-22T02:08:17.245Z,100403.47
2023-05-22T02:09:04.168Z,100415.41
2023-05-22T02:09:39.242Z,100428.69
2023-05-22T02:10:20.163Z,100443.03
2023-05-22T02:11:03.260Z,100429.72
2023-05-22T02:11:45.164Z,100425.81
2023-05-22T02:12:26.239Z,100428.69
2023-05-22T02:13:07.143Z,100429.72
2023-05-22T02:13:47.222Z,100418.78
2023-05-22T02:14:29.145Z,100433.16
2023-05-22T02:15:10.423Z,100425.97
2023-05-22T02:15:53.219Z,100426.81
2023-05-22T02:16:33.257Z,100413.34
2023-05-22T02:17:14.150Z,100414.72
2023-05-22T02:17:54.313Z,100420.84
2023-05-22T02:18:36.151Z,100407.03
2023-05-22T02:19:16.369Z,100433.47
2023-05-22T02:19:56.143Z,100433.31
2023-05-22T02:20:50.145Z,100430.78
2023-05-22T02:21:30.156Z,100444.91
2023-05-22T02:22:13.781Z,100439.31
2023-05-22T02:22:55.152Z,100426.31
2023-05-22T02:23:35.251Z,100427.50
2023-05-22T02:24:16.137Z,100412.16
2023-05-22T02:24:56.217Z,100439.13
2023-05-22T02:25:36.159Z,100417.78
2023-05-22T02:26:16.244Z,100427.31
2023-05-22T02:26:57.155Z,100438.94
2023-05-22T02:27:37.235Z,100438.94
2023-05-22T02:28:17.123Z,100430.06
2023-05-22T02:28:57.216Z,100422.88
2023-05-22T02:29:37.140Z,100411.09
2023-05-22T02:30:19.271Z,100425.59
2023-05-22T02:31:00.258Z,100434.19
2023-05-22T02:31:40.330Z,100428.03
2023-05-22T02:32:21.188Z,100403.09
2023-05-22T02:33:01.361Z,100414.38
2023-05-22T02:33:41.135Z,100430.75
2023-05-22T02:34:21.378Z,100428.72
2023-05-22T02:35:02.122Z,100413.00
2023-05-22T02:35:42.224Z,100418.09
2023-05-22T02:36:22.120Z,100435.22
2023-05-22T02:37:03.748Z,100435.03
2023-05-22T02:37:45.157Z,100426.00
2023-05-22T02:38:25.225Z,100413.00
2023-05-22T02:39:07.125Z,100434.69
2023-05-22T02:39:47.294Z,100424.63
2023-05-22T02:40:27.124Z,100435.91
2023-05-22T02:41:07.241Z,100429.25
2023-05-22T02:41:47.114Z,100418.81
2023-05-22T02:42:27.279Z,100416.56
2023-05-22T02:43:08.167Z,100425.84
2023-05-22T02:43:48.246Z,100431.78
2023-05-22T02:44:29.135Z,100414.22
2023-05-22T02:45:10.295Z,100420.00
2023-05-22T02:45:50.117Z,100406.50
2023-05-22T02:46:30.221Z,100436.59
2023-05-22T02:47:11.140Z,100417.94
2023-05-22T02:47:51.497Z,100426.69
2023-05-22T02:48:31.181Z,100424.81
2023-05-22T02:49:11.212Z,100421.56
2023-05-22T02:49:52.127Z,100417.09
2023-05-22T02:50:32.221Z,100425.59
2023-05-22T02:51:13.138Z,100408.56
2023-05-22T02:51:53.339Z,100406.84
2023-05-22T02:52:35.245Z,100418.44
2023-05-22T02:53:17.152Z,100427.34
2023-05-22T02:53:57.133Z,100424.25
2023-05-22T02:54:37.204Z,100419.31
2023-05-22T02:55:18.115Z,100420.34
2023-05-22T02:55:58.874Z,100420.34
2023-05-22T02:56:39.119Z,100433.78
2023-05-22T02:57:19.212Z,100423.22
2023-05-22T02:57:59.141Z,100429.03
2023-05-22T02:58:39.269Z,100430.19
2023-05-22T02:59:20.114Z,100428.31
2023-05-22T03:00:01.534Z,100431.22
2023-05-22T03:00:41.307Z,100413.16
2023-05-22T03:01:22.226Z,100403.09
2023-05-22T03:02:02.174Z,100418.44
2023-05-22T03:02:56.229Z,100427.66
2023-05-22T03:03:50.247Z,100421.88
2023-05-22T03:04:37.117Z,100408.72
2023-05-22T03:05:17.878Z,100424.94
2023-05-22T03:06:05.350Z,100412.81
2023-05-22T03:06:39.988Z,100419.97
2023-05-22T03:07:28.094Z,100409.91
2023-05-22T03:08:02.159Z,100422.00
2023-05-22T03:08:51.095Z,100425.63
2023-05-22T03:09:25.231Z,100416.75
2023-05-22T03:10:05.132Z,100408.91
2023-05-22T03:10:45.329Z,100426.13
2023-05-22T03:11:26.102Z,100416.56
2023-05-22T03:12:06.214Z,100406.00
2023-05-22T03:12:46.100Z,100426.31
2023-05-22T03:13:26.190Z,100430.41
2023-05-22T03:14:07.087Z,100427.16
2023-05-22T03:14:47.174Z,100412.63
2023-05-22T03:15:28.110Z,100424.75
2023-05-22T03:16:09.240Z,100422.19
2023-05-22T03:16:49.154Z,100413.31
2023-05-22T03:17:29.187Z,100407.16
2023-05-22T03:18:17.901Z,100424.56
2023-05-22T03:19:01.248Z,100415.50
2023-05-22T03:19:42.097Z,100422.88
2023-05-22T03:20:22.248Z,100410.75
2023-05-22T03:21:02.102Z,100426.78
2023-05-22T03:21:44.244Z,100416.34
2023-05-22T03:22:25.085Z,100404.78
2023-05-22T03:23:05.210Z,100393.16
2023-05-22T03:23:46.102Z,100422.53
2023-05-22T03:24:27.071Z,100404.25
2023-05-22T03:25:08.084Z,100421.81
2023-05-22T03:25:48.175Z,100406.78
2023-05-22T03:26:28.095Z,100412.25
2023-05-22T03:27:09.199Z,100406.97
2023-05-22T03:27:50.068Z,100421.13
2023-05-22T03:28:30.169Z,100402.38
2023-05-22T03:29:10.194Z,100420.81
2023-05-22T03:29:50.470Z,100410.22
2023-05-22T03:30:30.098Z,100421.50
2023-05-22T03:31:10.195Z,100412.94
2023-05-22T03:31:51.092Z,100426.94
2023-05-22T03:32:31.201Z,100420.16
2023-05-22T03:33:11.113Z,100429.69
2023-05-22T03:33:51.237Z,100422.16
2023-05-22T03:34:33.089Z,100413.31
2023-05-22T03:35:19.390Z,100400.00
2023-05-22T03:36:00.136Z,100420.47
2023-05-22T03:36:41.291Z,100418.91
2023-05-22T03:37:21.108Z,100412.78
2023-05-22T03:38:01.242Z,100414.50
2023-05-22T03:38:42.080Z,100415.50
2023-05-22T03:39:25.229Z,100417.56
2023-05-22T03:40:06.078Z,100400.97
2023-05-22T03:40:46.161Z,100407.81
2023-05-22T03:41:26.063Z,100424.53
2023-05-22T03:42:06.208Z,100421.44
2023-05-22T03:42:46.099Z,100415.63
2023-05-22T03:43:26.175Z,100405.38
2023-05-22T03:44:07.073Z,100405.03
2023-05-22T03:44:47.174Z,100416.00
2023-05-22T03:45:27.072Z,100420.94
2023-05-22T03:46:07.260Z,100404.41
2023-05-22T03:46:47.070Z,100416.72
2023-05-22T03:47:27.191Z,100423.31
2023-05-22T03:48:08.122Z,100417.03
2023-05-22T03:49:02.077Z,100418.06
2023-05-22T03:49:56.080Z,100424.53
2023-05-22T03:50:50.084Z,100402.88
2023-05-22T03:51:44.065Z,100415.69
2023-05-22T03:52:38.062Z,100418.91
2023-05-22T03:53:25.137Z,100424.53
2023-05-22T03:53:59.530Z,100416.03
2023-05-22T03:54:46.057Z,100412.25
2023-05-22T03:55:20.342Z,100416.19
2023-05-22T03:56:07.089Z,100423.00
2023-05-22T03:56:42.145Z,100407.81
2023-05-22T03:57:29.103Z,100426.72
2023-05-22T03:58:03.153Z,100419.75
2023-05-22T03:58:50.123Z,100429.13
2023-05-22T03:59:24.235Z,100411.53
2023-05-22T04:00:19.061Z,100419.31
2023-05-22T04:00:53.135Z,100414.81
2023-05-22T04:01:40.085Z,100420.66
2023-05-22T04:02:16.754Z,100418.38
2023-05-22T04:03:05.154Z,100399.47
2023-05-22T04:03:39.140Z,100425.44
2023-05-22T04:04:20.093Z,100406.13
2023-05-22T04:05:00.197Z,100432.28
2023-05-22T04:05:40.056Z,100426.50
2023-05-22T04:06:21.783Z,100404.00
2023-05-22T04:07:04.041Z,100416.28
2023-05-22T04:07:44.128Z,100418.00
2023-05-22T04:08:25.071Z,100421.09
2023-05-22T04:09:07.490Z,100424.34
2023-05-22T04:09:48.067Z,100412.06
2023-05-22T04:10:28.155Z,100393.63
2023-05-22T04:11:10.040Z,100421.44
2023-05-22T04:11:50.139Z,100406.78
2023-05-22T04:12:31.055Z,100423.50
2023-05-22T04:13:12.141Z,100390.41
2023-05-22T04:13:52.031Z,100415.16
2023-05-22T04:14:32.758Z,100400.66
2023-05-22T04:15:16.074Z,100413.97
2023-05-22T04:15:56.788Z,100404.91
2023-05-22T04:16:38.049Z,100410.59
2023-05-22T04:17:18.142Z,100414.34
2023-05-22T04:17:59.106Z,100401.69
2023-05-22T04:18:39.157Z,100419.09
2023-05-22T04:19:20.101Z,100416.88
2023-05-22T04:20:00.444Z,100417.19
2023-05-22T04:20:41.303Z,100395.69
2023-05-22T04:21:21.149Z,100406.59
2023-05-22T04:22:01.081Z,100421.81
2023-05-22T04:22:41.460Z,100403.38
2023-05-22T04:23:21.088Z,100406.78
2023-05-22T04:24:07.202Z,100406.47
2023-05-22T04:24:48.068Z,100410.38
2023-05-22T04:25:30.159Z,100418.75
2023-05-22T04:26:10.065Z,100406.16
2023-05-22T04:26:50.167Z,100411.59
2023-05-22T04:27:30.038Z,100407.00
2023-05-22T04:28:10.162Z,100413.81
2023-05-22T04:28:52.075Z,100418.44
2023-05-22T04:29:36.246Z,100406.66
2023-05-22T04:30:17.143Z,100405.66
2023-05-22T04:30:59.987Z,100401.53
2023-05-22T04:31:41.177Z,100415.03
2023-05-22T04:32:24.065Z,100419.81
2023-05-22T04:33:05.068Z,100403.09
2023-05-22T04:33:48.360Z,100425.44
2023-05-22T04:34:28.048Z,100406.84
2023-05-22T04:35:10.006Z,100411.97
2023-05-22T04:35:51.230Z,100407.72
2023-05-22T04:36:31.199Z,100423.06
2023-05-22T04:37:13.101Z,100415.06
2023-05-22T04:37:53.128Z,100403.78
2023-05-22T04:38:33.033Z,100422.56
2023-05-22T04:39:14.944Z,100411.97
2023-05-22T04:39:59.045Z,100409.06
2023-05-22T04:40:41.685Z,100408.22
2023-05-22T04:41:24.050Z,100416.44
2023-05-22T04:42:05.944Z,100409.59
2023-05-22T04:42:47.063Z,100414.38
2023-05-22T04:43:27.380Z,100419.84
2023-05-22T04:44:10.040Z,100418.50
2023-05-22T04:44:53.189Z,100420.38
2023-05-22T04:45:35.065Z,100410.66
2023-05-22T04:46:15.513Z,100402.09
2023-05-22T04:46:58.089Z,100398.72
2023-05-22T04:47:38.827Z,100417.28
2023-05-22T04:48:19.121Z,100400.41
2023-05-22T04:49:02.264Z,100409.78
2023-05-22T04:49:43.054Z,100417.13
2023-05-22T04:50:24.077Z,100409.63
2023-05-22T04:51:05.073Z,100409.09
2023-05-22T04:51:45.242Z,100413.34
2023-05-22T04:52:25.093Z,100375.66
2023-05-22T04:53:06.176Z,100409.25
2023-05-22T04:53:47.188Z,100408.56
2023-05-22T04:54:27.120Z,100398.00
2023-05-22T04:55:08.067Z,100408.56
2023-05-22T04:55:48.146Z,100406.53
2023-05-22T04:56:36.056Z,100409.94
2023-05-22T04:57:17.290Z,100401.72
2023-05-22T04:57:59.054Z,100401.44
2023-05-22T04:58:40.266Z,100398.00
2023-05-22T04:59:23.066Z,100393.53
2023-05-22T05:00:04.858Z,100409.88
2023-05-22T05:00:45.124Z,100404.41
2023-05-22T05:01:27.818Z,100386.34
2023-05-22T05:02:09.116Z,100391.97
2023-05-22T05:02:50.213Z,100415.00
2023-05-22T05:03:35.048Z,100420.78
2023-05-22T05:04:15.113Z,100402.53
2023-05-22T05:04:55.067Z,100397.19
2023-05-22T05:05:35.182Z,100409.50
2023-05-22T05:06:16.044Z,100406.38
2023-05-22T05:07:11.053Z,100394.59
2023-05-22T05:08:05.036Z,100405.06
2023-05-22T05:08:59.018Z,100402.84
2023-05-22T05:09:53.063Z,100400.31
2023-05-22T05:10:34.031Z,100409.88
2023-05-22T05:11:14.088Z,100410.91
2023-05-22T05:11:56.035Z,100389.75
2023-05-22T05:12:36.075Z,100411.25
2023-05-22T05:13:16.051Z,100400.63
2023-05-22T05:13:56.122Z,100396.53
2023-05-22T05:14:37.071Z,100408.13
2023-05-22T05:15:17.094Z,100407.94
2023-05-22T05:15:51.141Z,100410.81
2023-05-22T05:16:40.049Z,100416.28
2023-05-22T05:17:14.497Z,100411.69
2023-05-22T05:18:03.074Z,100412.00
2023-05-22T05:18:37.137Z,100402.63
2023-05-22T05:19:28.175Z,100419.19
2023-05-22T05:20:02.244Z,100393.38
2023-05-22T05:20:43.028Z,100407.41
2023-05-22T05:21:23.173Z,100401.59
2023-05-22T05:22:03.060Z,100411.81
2023-05-22T05:22:46.095Z,100406.69
2023-05-22T05:23:26.016Z,100417.09
2023-05-22T05:24:06.077Z,100406.69
2023-05-22T05:24:46.029Z,100411.13
2023-05-22T05:25:26.103Z,100417.25
2023-05-22T05:26:07.032Z,100399.19
2023-05-22T05:26:47.350Z,100398.34
2023-05-22T05:27:27.014Z,100401.22
2023-05-22T05:28:12.988Z,100411.13
2023-05-22T05:28:54.004Z,100391.34
2023-05-22T05:29:34.159Z,100408.72
2023-05-22T05:30:17.599Z,100414.50
2023-05-22T05:30:59.328Z,100418.59
2023-05-22T05:31:39.099Z,100418.56
2023-05-22T05:32:19.141Z,100416.13
2023-05-22T05:32:59.065Z,100408.78
2023-05-22T05:33:39.094Z,100410.31
2023-05-22T05:34:20.034Z,100417.88
2023-05-22T05:35:00.143Z,100415.78
2023-05-22T05:35:42.734Z,100419.19
2023-05-22T05:36:23.078Z,100412.69
2023-05-22T05:37:05.021Z,100416.44
2023-05-22T05:37:45.318Z,100414.69
2023-05-22T05:38:26.003Z,100410.91
2023-05-22T05:39:06.318Z,100410.72
2023-05-22T05:40:26.138Z,100403.53
2023-05-22T05:41:06.042Z,100406.28
2023-05-22T05:41:51.097Z,100413.03
2023-05-22T05:42:33.017Z,100404.88
2023-05-22T05:43:16.085Z,100413.53
2023-05-22T05:43:59.000Z,100409.41
2023-05-22T05:44:39.097Z,100403.09
2023-05-22T05:45:22.001Z,100413.81
2023-05-22T05:46:02.309Z,100407.63
2023-05-22T05:46:44.081Z,100402.50
2023-05-22T05:47:25.049Z,100414.59
2023-05-22T05:48:05.108Z,100413.03
2023-05-22T05:48:45.276Z,100400.91
2023-05-22T05:49:26.971Z,100401.75
2023-05-22T05:50:07.293Z,100404.97
2023-05-22T05:50:48.026Z,100415.38
2023-05-22T05:51:28.108Z,100411.91
2023-05-22T05:52:08.004Z,100411.16
2023-05-22T05:52:48.135Z,100385.81
2023-05-22T05:53:29.017Z,100412.09
2023-05-22T05:54:09.085Z,100404.38
2023-05-22T05:54:53.992Z,100412.69
2023-05-22T05:55:35.070Z,100404.28
2023-05-22T05:56:15.997Z,100410.72
2023-05-22T05:56:56.115Z,100409.53
2023-05-22T05:57:37.978Z,100400.50
2023-05-22T05:58:18.104Z,100401.75
2023-05-22T05:58:59.071Z,100404.59
2023-05-22T05:59:39.058Z,100405.75
2023-05-22T06:00:19.996Z,100404.50
2023-05-22T06:01:00.140Z,100388.75
2023-05-22T06:02:03.020Z,100397.72
2023-05-22T06:03:05.985Z,100400.94
2023-05-22T06:03:54.208Z,100404.25
2023-05-22T06:04:35.020Z,100390.34
2023-05-22T06:05:17.906Z,100390.19
2023-05-22T06:05:59.006Z,100375.69
2023-05-22T06:06:39.474Z,100399.81
2023-05-22T06:07:26.977Z,100386.75
2023-05-22T06:08:01.098Z,100397.66
2023-05-22T06:08:48.972Z,100398.91
2023-05-22T06:09:26.164Z,100397.34
2023-05-22T06:10:05.999Z,100384.06
2023-05-22T06:10:46.943Z,100389.13
2023-05-22T06:11:28.968Z,100388.13
2023-05-22T06:12:12.916Z,100387.84
2023-05-22T06:12:53.011Z,100393.44
2023-05-22T06:13:33.086Z,100398.06
2023-05-22T06:14:15.054Z,100381.91
2023-05-22T06:14:55.114Z,100381.34
2023-05-22T06:15:37.011Z,100390.63
2023-05-22T06:16:17.090Z,100400.34
2023-05-22T06:16:57.024Z,100387.47
2023-05-22T06:17:40.011Z,100384.19
2023-05-22T06:18:20.016Z,100395.97
2023-05-22T06:19:00.186Z,100390.63
2023-05-22T06:19:41.020Z,100402.50
2023-05-22T06:20:21.370Z,100397.13
2023-05-22T06:21:05.975Z,100394.94
2023-05-22T06:21:46.130Z,100391.19
2023-05-22T06:22:27.022Z,100387.84
2023-05-22T06:23:07.062Z,100386.63
2023-05-22T06:23:48.039Z,100398.16
2023-05-22T06:24:43.201Z,100389.25
2023-05-22T06:25:36.980Z,100397.69
2023-05-22T06:26:24.997Z,100380.09
2023-05-22T06:26:59.114Z,100395.31
2023-05-22T06:27:45.974Z,100403.16
2023-05-22T06:28:20.159Z,100398.69
2023-05-22T06:29:07.030Z,100395.38
2023-05-22T06:29:41.159Z,100382.22
2023-05-22T06:30:39.443Z,100395.03
2023-05-22T06:31:14.381Z,100404.66
2023-05-22T06:31:54.035Z,100391.78
2023-05-22T06:32:34.248Z,100402.25
2023-05-22T06:33:14.069Z,100385.16
2023-05-22T06:33:54.151Z,100405.00
2023-05-22T06:34:34.980Z,100401.00
2023-05-22T06:35:16.091Z,100399.16
2023-05-22T06:35:55.964Z,100406.34
2023-05-22T06:36:36.038Z,100399.25
2023-05-22T06:37:16.966Z,100399.16
2023-05-22T06:37:57.359Z,100399.41
2023-05-22T06:38:39.031Z,100383.81
2023-05-22T06:39:20.048Z,100394.88
2023-05-22T06:39:59.955Z,100400.44
2023-05-22T06:40:40.368Z,100394.94
2023-05-22T06:41:20.959Z,100367.81
2023-05-22T06:42:01.021Z,100385.28
2023-05-22T06:42:40.955Z,100389.91
2023-05-22T06:43:21.015Z,100392.06
2023-05-22T06:44:00.946Z,100377.63
2023-05-22T06:44:41.114Z,100386.13
2023-05-22T06:45:21.959Z,100394.53
2023-05-22T06:46:02.137Z,100391.16
2023-05-22T06:46:41.964Z,100394.66
2023-05-22T06:47:22.066Z,100385.34
2023-05-22T06:48:02.994Z,100386.13
2023-05-22T06:48:43.053Z,100378.19
2023-05-22T06:49:22.946Z,100392.75
2023-05-22T06:50:03.042Z,100380.81
2023-05-22T06:50:42.962Z,100383.19
2023-05-22T06:51:24.421Z,100392.53
2023-05-22T06:52:05.507Z,100388.47
2023-05-22T06:52:46.127Z,100388.22
2023-05-22T06:53:25.984Z,100390.16
2023-05-22T06:54:07.256Z,100389.53
2023-05-22T06:54:49.915Z,100380.19
2023-05-22T06:55:30.288Z,100403.53
2023-05-22T06:56:09.929Z,100393.38
2023-05-22T06:56:50.079Z,100391.75
2023-05-22T06:57:30.943Z,100399.00
2023-05-22T06:58:11.212Z,100397.78
2023-05-22T06:58:51.967Z,100403.28
2023-05-22T06:59:32.083Z,100382.72
2023-05-22T07:00:15.936Z,100395.88
2023-05-22T07:00:56.135Z,100395.88
2023-05-22T07:01:36.071Z,100401.81
2023-05-22T07:02:16.002Z,100397.19
2023-05-22T07:02:56.977Z,100397.00
2023-05-22T07:03:36.989Z,100395.56
2023-05-22T07:04:20.040Z,100407.19
2023-05-22T07:05:00.036Z,100388.75
2023-05-22T07:05:39.945Z,100400.06
2023-05-22T07:06:20.370Z,100400.13
2023-05-22T07:07:01.916Z,100396.31
2023-05-22T07:07:42.053Z,100392.06
2023-05-22T07:08:22.946Z,100398.41
2023-05-22T07:09:03.037Z,100392.50
2023-05-22T07:09:42.929Z,100387.38
2023-05-22T07:10:24.995Z,100385.75
2023-05-22T07:11:05.947Z,100367.47
2023-05-22T07:11:46.127Z,100395.00
2023-05-22T07:12:26.943Z,100396.31
2023-05-22T07:13:07.030Z,100396.19
2023-05-22T07:13:46.944Z,100390.44
2023-05-22T07:14:27.027Z,100395.78
2023-05-22T07:15:07.925Z,100395.34
2023-05-22T07:15:48.022Z,100362.13
2023-05-22T07:16:29.926Z,100380.00
2023-05-22T07:17:10.050Z,100397.38
2023-05-22T07:17:49.954Z,100390.09
2023-05-22T07:18:30.028Z,100390.81
2023-05-22T07:19:10.965Z,100385.13
2023-05-22T07:19:51.003Z,100382.13
2023-05-22T07:20:32.959Z,100384.91
2023-05-22T07:21:13.001Z,100389.38
2023-05-22T07:21:52.932Z,100388.59
2023-05-22T07:22:33.040Z,100371.63
2023-05-22T07:23:13.977Z,100364.91
2023-05-22T07:23:54.048Z,100368.13
2023-05-22T07:24:33.949Z,100381.50
2023-05-22T07:25:15.003Z,100370.97
2023-05-22T07:25:54.972Z,100381.19
2023-05-22T07:26:35.042Z,100369.31
2023-05-22T07:27:15.912Z,100390.28
2023-05-22T07:28:14.889Z,100375.81
2023-05-22T07:29:08.921Z,100384.00
2023-05-22T07:30:02.955Z,100380.66
2023-05-22T07:30:56.964Z,100364.16
2023-05-22T07:31:51.009Z,100379.06
2023-05-22T07:32:44.959Z,100392.59
2023-05-22T07:33:39.912Z,100380.09
2023-05-22T07:34:40.926Z,100377.34
2023-05-22T07:35:34.939Z,100379.47
2023-05-22T07:36:22.962Z,100392.00
2023-05-22T07:36:57.296Z,100384.16
2023-05-22T07:37:44.899Z,100378.03
2023-05-22T07:38:19.015Z,100383.34
2023-05-22T07:39:05.928Z,100390.13
2023-05-22T07:39:40.069Z,100386.72
2023-05-22T07:40:26.913Z,100390.13
2023-05-22T07:41:00.993Z,100379.13
2023-05-22T07:41:47.915Z,100376.22
2023-05-22T07:42:22.042Z,100382.63
2023-05-22T07:43:08.941Z,100399.75
2023-05-22T07:43:42.985Z,100379.59
2023-05-22T07:44:29.894Z,100394.41
2023-05-22T07:45:04.035Z,100380.84
2023-05-22T07:45:50.931Z,100396.09
2023-05-22T07:46:25.049Z,100389.97
2023-05-22T07:47:12.913Z,100404.13
2023-05-22T07:47:47.098Z,100383.38
2023-05-22T07:48:33.895Z,100388.97
2023-05-22T07:49:07.986Z,100381.56
2023-05-22T07:49:54.910Z,100387.72
2023-05-22T07:50:30.488Z,100390.69
2023-05-22T07:51:19.895Z,100397.50
2023-05-22T07:51:53.964Z,100376.47
2023-05-22T07:52:35.008Z,100384.41
2023-05-22T07:53:15.038Z,100390.94
2023-05-22T07:53:54.897Z,100383.09
2023-05-22T07:54:34.957Z,100383.56
2023-05-22T07:55:15.926Z,100380.16
2023-05-22T07:55:56.050Z,100385.25
2023-05-22T07:56:36.956Z,100388.66
2023-05-22T07:57:17.675Z,100387.19
2023-05-22T07:57:58.925Z,100392.09
2023-05-22T07:58:40.087Z,100387.81
2023-05-22T07:59:22.895Z,100401.00
2023-05-22T08:00:09.422Z,100392.50
2023-05-22T08:00:49.890Z,100392.94
2023-05-22T08:01:29.951Z,100389.50
2023-05-22T08:02:09.959Z,100390.81
2023-05-22T08:02:51.146Z,100381.06
2023-05-22T08:03:31.001Z,100387.41
2023-05-22T08:04:12.090Z,100384.47
2023-05-22T08:04:51.928Z,100399.75
2023-05-22T08:05:32.066Z,100395.91
2023-05-22T08:06:12.877Z,100396.31
2023-05-22T08:06:53.993Z,100396.53
2023-05-22T08:07:33.896Z,100390.22
2023-05-22T08:08:13.964Z,100392.97
2023-05-22T08:08:53.976Z,100380.25
2023-05-22T08:09:33.990Z,100379.81